sensor_id;sensor_type;location;lat;lon;timestamp;P1;durP1;ratioP1;P2;durP2;ratioP2
63738;SDS011;68816;45.558;10.070;2023-09-18T00:02:08;24.95;;;22.25;;
63738;SDS011;68816;45.558;10.070;2023-09-18T00:04:33;26.13;;;21.33;;
63738;SDS011;68816;45.558;10.070;2023-09-18T00:06:59;27.35;;;22.75;;
63738;SDS011;68816;45.558;10.070;2023-09-18T00:09:24;27.33;;;22.10;;
63738;SDS011;68816;45.558;10.070;2023-09-18T00:11:50;24.83;;;21.70;;
63738;SDS011;68816;45.558;10.070;2023-09-18T00:14:15;25.20;;;21.17;;
63738;SDS011;68816;45.558;10.070;2023-09-18T00:16:41;26.85;;;21.65;;
63738;SDS011;68816;45.558;10.070;2023-09-18T00:19:06;24.70;;;20.55;;
63738;SDS011;68816;45.558;10.070;2023-09-18T00:21:35;24.80;;;20.10;;
63738;SDS011;68816;45.558;10.070;2023-09-18T00:24:01;25.30;;;19.65;;
63738;SDS011;68816;45.558;10.070;2023-09-18T00:26:26;21.92;;;18.73;;
63738;SDS011;68816;45.558;10.070;2023-09-18T00:28:52;26.15;;;19.15;;
63738;SDS011;68816;45.558;10.070;2023-09-18T00:31:18;24.35;;;18.80;;
63738;SDS011;68816;45.558;10.070;2023-09-18T00:33:44;21.10;;;18.88;;
63738;SDS011;68816;45.558;10.070;2023-09-18T00:36:09;22.45;;;17.75;;
63738;SDS011;68816;45.558;10.070;2023-09-18T00:38:35;20.75;;;17.35;;
63738;SDS011;68816;45.558;10.070;2023-09-18T00:41:01;21.40;;;17.27;;
63738;SDS011;68816;45.558;10.070;2023-09-18T00:43:27;24.67;;;18.20;;
63738;SDS011;68816;45.558;10.070;2023-09-18T00:45:52;23.63;;;17.80;;
63738;SDS011;68816;45.558;10.070;2023-09-18T00:48:18;22.83;;;18.20;;
63738;SDS011;68816;45.558;10.070;2023-09-18T00:50:44;24.58;;;18.70;;
63738;SDS011;68816;45.558;10.070;2023-09-18T00:53:12;24.52;;;19.33;;
63738;SDS011;68816;45.558;10.070;2023-09-18T00:55:41;26.23;;;19.23;;
63738;SDS011;68816;45.558;10.070;2023-09-18T00:58:07;24.08;;;19.13;;
63738;SDS011;68816;45.558;10.070;2023-09-18T01:00:33;24.67;;;19.50;;
63738;SDS011;68816;45.558;10.070;2023-09-18T01:02:58;24.48;;;18.30;;
63738;SDS011;68816;45.558;10.070;2023-09-18T01:05:26;27.23;;;19.75;;
63738;SDS011;68816;45.558;10.070;2023-09-18T01:07:52;25.15;;;18.42;;
63738;SDS011;68816;45.558;10.070;2023-09-18T01:10:17;25.30;;;18.83;;
63738;SDS011;68816;45.558;10.070;2023-09-18T01:12:48;23.48;;;19.63;;
63738;SDS011;68816;45.558;10.070;2023-09-18T01:15:40;23.75;;;19.58;;
63738;SDS011;68816;45.558;10.070;2023-09-18T01:18:12;28.15;;;21.55;;
63738;SDS011;68816;45.558;10.070;2023-09-18T01:20:38;27.35;;;20.95;;
63738;SDS011;68816;45.558;10.070;2023-09-18T01:23:04;26.98;;;20.02;;
63738;SDS011;68816;45.558;10.070;2023-09-18T01:25:30;28.80;;;22.30;;
63738;SDS011;68816;45.558;10.070;2023-09-18T01:27:58;29.63;;;21.55;;
63738;SDS011;68816;45.558;10.070;2023-09-18T01:30:23;27.23;;;21.13;;
63738;SDS011;68816;45.558;10.070;2023-09-18T01:32:49;25.67;;;20.60;;
63738;SDS011;68816;45.558;10.070;2023-09-18T01:40:49;26.15;;;20.13;;
63738;SDS011;68816;45.558;10.070;2023-09-18T01:43:18;26.17;;;20.27;;
63738;SDS011;68816;45.558;10.070;2023-09-18T01:45:44;26.20;;;21.23;;
63738;SDS011;68816;45.558;10.070;2023-09-18T01:48:10;26.63;;;19.63;;
63738;SDS011;68816;45.558;10.070;2023-09-18T01:50:36;26.17;;;20.88;;
63738;SDS011;68816;45.558;10.070;2023-09-18T01:53:02;26.63;;;20.17;;
63738;SDS011;68816;45.558;10.070;2023-09-18T01:55:28;26.38;;;20.35;;
63738;SDS011;68816;45.558;10.070;2023-09-18T01:57:55;26.70;;;20.17;;
63738;SDS011;68816;45.558;10.070;2023-09-18T02:00:21;20.98;;;18.77;;
63738;SDS011;68816;45.558;10.070;2023-09-18T02:02:46;27.52;;;19.58;;
63738;SDS011;68816;45.558;10.070;2023-09-18T02:05:12;28.02;;;19.60;;
63738;SDS011;68816;45.558;10.070;2023-09-18T02:07:38;23.85;;;20.75;;
63738;SDS011;68816;45.558;10.070;2023-09-18T02:10:03;23.73;;;19.75;;
63738;SDS011;68816;45.558;10.070;2023-09-18T02:12:29;25.60;;;20.75;;
63738;SDS011;68816;45.558;10.070;2023-09-18T02:14:55;28.00;;;22.20;;
63738;SDS011;68816;45.558;10.070;2023-09-18T02:17:23;24.45;;;21.30;;
63738;SDS011;68816;45.558;10.070;2023-09-18T02:19:49;27.52;;;22.00;;
63738;SDS011;68816;45.558;10.070;2023-09-18T02:22:15;28.10;;;20.63;;
63738;SDS011;68816;45.558;10.070;2023-09-18T02:24:40;28.27;;;19.63;;
63738;SDS011;68816;45.558;10.070;2023-09-18T02:27:06;22.48;;;18.83;;
63738;SDS011;68816;45.558;10.070;2023-09-18T02:29:32;24.48;;;18.33;;
63738;SDS011;68816;45.558;10.070;2023-09-18T02:31:57;22.58;;;18.52;;
63738;SDS011;68816;45.558;10.070;2023-09-18T02:34:23;25.45;;;18.27;;
63738;SDS011;68816;45.558;10.070;2023-09-18T02:36:49;23.05;;;18.00;;
63738;SDS011;68816;45.558;10.070;2023-09-18T02:39:14;24.77;;;18.75;;
63738;SDS011;68816;45.558;10.070;2023-09-18T02:41:40;22.27;;;17.67;;
63738;SDS011;68816;45.558;10.070;2023-09-18T02:44:05;22.95;;;16.42;;
63738;SDS011;68816;45.558;10.070;2023-09-18T02:46:31;22.55;;;17.10;;
63738;SDS011;68816;45.558;10.070;2023-09-18T02:48:56;22.15;;;16.52;;
63738;SDS011;68816;45.558;10.070;2023-09-18T02:51:22;23.80;;;16.83;;
63738;SDS011;68816;45.558;10.070;2023-09-18T02:53:48;20.13;;;16.65;;
63738;SDS011;68816;45.558;10.070;2023-09-18T02:56:14;22.38;;;15.68;;
63738;SDS011;68816;45.558;10.070;2023-09-18T02:58:40;21.23;;;16.13;;
63738;SDS011;68816;45.558;10.070;2023-09-18T03:01:06;23.35;;;17.15;;
63738;SDS011;68816;45.558;10.070;2023-09-18T03:03:33;21.65;;;17.05;;
63738;SDS011;68816;45.558;10.070;2023-09-18T03:06:02;21.60;;;17.17;;
63738;SDS011;68816;45.558;10.070;2023-09-18T03:08:29;23.75;;;17.88;;
63738;SDS011;68816;45.558;10.070;2023-09-18T03:10:55;24.05;;;18.23;;
63738;SDS011;68816;45.558;10.070;2023-09-18T03:13:21;21.30;;;18.27;;
63738;SDS011;68816;45.558;10.070;2023-09-18T03:15:47;22.02;;;18.00;;
63738;SDS011;68816;45.558;10.070;2023-09-18T03:18:13;20.10;;;17.33;;
63738;SDS011;68816;45.558;10.070;2023-09-18T03:20:38;19.85;;;17.27;;
63738;SDS011;68816;45.558;10.070;2023-09-18T03:23:04;22.45;;;17.67;;
63738;SDS011;68816;45.558;10.070;2023-09-18T03:25:30;23.23;;;17.65;;
63738;SDS011;68816;45.558;10.070;2023-09-18T03:27:56;22.73;;;17.90;;
63738;SDS011;68816;45.558;10.070;2023-09-18T03:30:23;20.77;;;17.88;;
63738;SDS011;68816;45.558;10.070;2023-09-18T03:32:49;20.13;;;17.42;;
63738;SDS011;68816;45.558;10.070;2023-09-18T03:35:16;23.75;;;17.60;;
63738;SDS011;68816;45.558;10.070;2023-09-18T03:37:46;21.67;;;17.90;;
63738;SDS011;68816;45.558;10.070;2023-09-18T03:40:13;25.50;;;18.25;;
63738;SDS011;68816;45.558;10.070;2023-09-18T03:42:39;23.27;;;16.98;;
63738;SDS011;68816;45.558;10.070;2023-09-18T03:45:05;23.25;;;17.55;;
63738;SDS011;68816;45.558;10.070;2023-09-18T03:47:34;20.05;;;16.92;;
63738;SDS011;68816;45.558;10.070;2023-09-18T03:50:01;23.23;;;17.00;;
63738;SDS011;68816;45.558;10.070;2023-09-18T03:52:27;24.30;;;17.23;;
63738;SDS011;68816;45.558;10.070;2023-09-18T03:54:53;21.60;;;16.20;;
63738;SDS011;68816;45.558;10.070;2023-09-18T03:57:18;23.98;;;16.48;;
63738;SDS011;68816;45.558;10.070;2023-09-18T03:59:44;21.90;;;16.67;;
63738;SDS011;68816;45.558;10.070;2023-09-18T04:02:10;20.42;;;16.52;;
63738;SDS011;68816;45.558;10.070;2023-09-18T04:04:35;20.17;;;16.48;;
63738;SDS011;68816;45.558;10.070;2023-09-18T04:07:04;21.10;;;16.77;;
63738;SDS011;68816;45.558;10.070;2023-09-18T04:09:31;26.40;;;16.83;;
63738;SDS011;68816;45.558;10.070;2023-09-18T04:11:56;22.27;;;17.55;;
63738;SDS011;68816;45.558;10.070;2023-09-18T04:14:22;22.85;;;16.95;;
63738;SDS011;68816;45.558;10.070;2023-09-18T04:16:48;24.45;;;17.30;;
63738;SDS011;68816;45.558;10.070;2023-09-18T04:19:13;19.23;;;16.77;;
63738;SDS011;68816;45.558;10.070;2023-09-18T04:21:39;21.88;;;16.60;;
63738;SDS011;68816;45.558;10.070;2023-09-18T04:24:05;24.25;;;17.50;;
63738;SDS011;68816;45.558;10.070;2023-09-18T04:26:30;23.98;;;17.70;;
63738;SDS011;68816;45.558;10.070;2023-09-18T04:28:56;24.33;;;17.70;;
63738;SDS011;68816;45.558;10.070;2023-09-18T04:31:23;24.52;;;19.05;;
63738;SDS011;68816;45.558;10.070;2023-09-18T04:33:49;25.48;;;18.10;;
63738;SDS011;68816;45.558;10.070;2023-09-18T04:36:15;24.48;;;18.38;;
63738;SDS011;68816;45.558;10.070;2023-09-18T04:38:40;24.55;;;18.75;;
63738;SDS011;68816;45.558;10.070;2023-09-18T04:41:06;24.25;;;17.33;;
63738;SDS011;68816;45.558;10.070;2023-09-18T04:43:36;22.60;;;17.08;;
63738;SDS011;68816;45.558;10.070;2023-09-18T04:46:03;26.90;;;17.60;;
63738;SDS011;68816;45.558;10.070;2023-09-18T04:48:30;23.92;;;17.23;;
63738;SDS011;68816;45.558;10.070;2023-09-18T04:50:57;21.58;;;16.23;;
63738;SDS011;68816;45.558;10.070;2023-09-18T04:53:23;23.80;;;16.58;;
63738;SDS011;68816;45.558;10.070;2023-09-18T04:55:49;22.45;;;16.30;;
63738;SDS011;68816;45.558;10.070;2023-09-18T04:58:15;23.42;;;17.08;;
63738;SDS011;68816;45.558;10.070;2023-09-18T05:00:42;21.88;;;16.33;;
63738;SDS011;68816;45.558;10.070;2023-09-18T05:03:07;21.20;;;16.02;;
63738;SDS011;68816;45.558;10.070;2023-09-18T05:05:34;24.00;;;15.13;;
63738;SDS011;68816;45.558;10.070;2023-09-18T05:08:01;22.52;;;16.27;;
63738;SDS011;68816;45.558;10.070;2023-09-18T05:10:28;26.13;;;16.27;;
63738;SDS011;68816;45.558;10.070;2023-09-18T05:12:54;23.52;;;16.20;;
63738;SDS011;68816;45.558;10.070;2023-09-18T05:15:24;23.08;;;15.73;;
63738;SDS011;68816;45.558;10.070;2023-09-18T05:17:52;27.45;;;15.63;;
63738;SDS011;68816;45.558;10.070;2023-09-18T05:20:22;25.95;;;15.68;;
63738;SDS011;68816;45.558;10.070;2023-09-18T05:22:49;22.13;;;15.38;;
63738;SDS011;68816;45.558;10.070;2023-09-18T05:25:18;21.92;;;15.43;;
63738;SDS011;68816;45.558;10.070;2023-09-18T05:27:44;25.42;;;15.93;;
63738;SDS011;68816;45.558;10.070;2023-09-18T05:30:13;19.85;;;16.13;;
63738;SDS011;68816;45.558;10.070;2023-09-18T05:32:44;24.13;;;16.63;;
63738;SDS011;68816;45.558;10.070;2023-09-18T05:35:10;26.98;;;16.60;;
63738;SDS011;68816;45.558;10.070;2023-09-18T05:37:37;21.67;;;15.20;;
63738;SDS011;68816;45.558;10.070;2023-09-18T05:40:04;19.52;;;15.60;;
63738;SDS011;68816;45.558;10.070;2023-09-18T05:42:34;19.98;;;15.85;;
63738;SDS011;68816;45.558;10.070;2023-09-18T05:45:01;23.08;;;15.73;;
63738;SDS011;68816;45.558;10.070;2023-09-18T05:47:31;21.33;;;16.05;;
63738;SDS011;68816;45.558;10.070;2023-09-18T05:50:06;29.73;;;16.30;;
63738;SDS011;68816;45.558;10.070;2023-09-18T05:52:33;27.10;;;16.85;;
63738;SDS011;68816;45.558;10.070;2023-09-18T05:54:59;20.98;;;17.10;;
63738;SDS011;68816;45.558;10.070;2023-09-18T05:57:26;24.92;;;16.98;;
63738;SDS011;68816;45.558;10.070;2023-09-18T05:59:54;25.17;;;16.42;;
63738;SDS011;68816;45.558;10.070;2023-09-18T06:02:23;24.20;;;17.02;;
63738;SDS011;68816;45.558;10.070;2023-09-18T06:04:53;24.20;;;17.05;;
63738;SDS011;68816;45.558;10.070;2023-09-18T06:07:24;24.63;;;17.10;;
63738;SDS011;68816;45.558;10.070;2023-09-18T06:09:51;20.35;;;17.20;;
63738;SDS011;68816;45.558;10.070;2023-09-18T06:12:17;26.63;;;17.70;;
63738;SDS011;68816;45.558;10.070;2023-09-18T06:14:42;25.88;;;18.35;;
63738;SDS011;68816;45.558;10.070;2023-09-18T06:17:08;28.52;;;18.60;;
63738;SDS011;68816;45.558;10.070;2023-09-18T06:19:35;28.40;;;18.95;;
63738;SDS011;68816;45.558;10.070;2023-09-18T06:22:04;30.92;;;18.85;;
63738;SDS011;68816;45.558;10.070;2023-09-18T06:24:30;29.58;;;18.38;;
63738;SDS011;68816;45.558;10.070;2023-09-18T06:26:55;28.73;;;18.83;;
63738;SDS011;68816;45.558;10.070;2023-09-18T06:29:21;29.08;;;18.30;;
63738;SDS011;68816;45.558;10.070;2023-09-18T06:31:46;27.10;;;18.55;;
63738;SDS011;68816;45.558;10.070;2023-09-18T06:34:12;26.55;;;17.30;;
63738;SDS011;68816;45.558;10.070;2023-09-18T06:36:38;28.73;;;15.90;;
63738;SDS011;68816;45.558;10.070;2023-09-18T06:39:04;32.67;;;17.00;;
63738;SDS011;68816;45.558;10.070;2023-09-18T06:41:29;27.30;;;17.33;;
63738;SDS011;68816;45.558;10.070;2023-09-18T06:43:55;28.50;;;17.33;;
63738;SDS011;68816;45.558;10.070;2023-09-18T06:46:22;24.83;;;16.40;;
63738;SDS011;68816;45.558;10.070;2023-09-18T06:48:48;24.20;;;14.30;;
63738;SDS011;68816;45.558;10.070;2023-09-18T06:51:16;23.42;;;15.07;;
63738;SDS011;68816;45.558;10.070;2023-09-18T06:53:42;24.92;;;15.07;;
63738;SDS011;68816;45.558;10.070;2023-09-18T06:56:09;21.60;;;14.07;;
63738;SDS011;68816;45.558;10.070;2023-09-18T06:58:34;18.80;;;12.93;;
63738;SDS011;68816;45.558;10.070;2023-09-18T07:01:00;19.85;;;12.77;;
63738;SDS011;68816;45.558;10.070;2023-09-18T07:03:26;16.15;;;12.82;;
63738;SDS011;68816;45.558;10.070;2023-09-18T07:05:51;26.52;;;12.25;;
63738;SDS011;68816;45.558;10.070;2023-09-18T07:08:17;21.20;;;12.45;;
63738;SDS011;68816;45.558;10.070;2023-09-18T07:10:49;21.58;;;12.65;;
63738;SDS011;68816;45.558;10.070;2023-09-18T07:13:15;17.38;;;12.02;;
63738;SDS011;68816;45.558;10.070;2023-09-18T07:15:41;20.63;;;12.52;;
63738;SDS011;68816;45.558;10.070;2023-09-18T07:18:06;24.13;;;14.20;;
63738;SDS011;68816;45.558;10.070;2023-09-18T07:20:32;21.75;;;13.80;;
63738;SDS011;68816;45.558;10.070;2023-09-18T07:22:58;23.55;;;14.13;;
63738;SDS011;68816;45.558;10.070;2023-09-18T07:25:24;20.83;;;13.95;;
63738;SDS011;68816;45.558;10.070;2023-09-18T07:27:49;28.60;;;15.07;;
63738;SDS011;68816;45.558;10.070;2023-09-18T07:30:15;25.52;;;15.13;;
63738;SDS011;68816;45.558;10.070;2023-09-18T07:32:42;29.25;;;15.70;;
63738;SDS011;68816;45.558;10.070;2023-09-18T07:35:08;24.00;;;15.65;;
63738;SDS011;68816;45.558;10.070;2023-09-18T07:37:34;25.42;;;16.23;;
63738;SDS011;68816;45.558;10.070;2023-09-18T07:40:01;28.55;;;17.52;;
63738;SDS011;68816;45.558;10.070;2023-09-18T07:42:27;27.60;;;17.23;;
63738;SDS011;68816;45.558;10.070;2023-09-18T07:44:53;30.65;;;18.45;;
63738;SDS011;68816;45.558;10.070;2023-09-18T07:47:19;28.85;;;18.98;;
63738;SDS011;68816;45.558;10.070;2023-09-18T07:49:45;28.05;;;18.48;;
63738;SDS011;68816;45.558;10.070;2023-09-18T07:52:12;33.00;;;20.02;;
63738;SDS011;68816;45.558;10.070;2023-09-18T07:54:37;33.03;;;21.45;;
63738;SDS011;68816;45.558;10.070;2023-09-18T07:57:03;35.72;;;21.55;;
63738;SDS011;68816;45.558;10.070;2023-09-18T07:59:29;43.65;;;22.65;;
63738;SDS011;68816;45.558;10.070;2023-09-18T08:01:55;36.72;;;23.02;;
63738;SDS011;68816;45.558;10.070;2023-09-18T08:04:21;34.08;;;23.65;;
63738;SDS011;68816;45.558;10.070;2023-09-18T08:06:47;39.20;;;24.98;;
63738;SDS011;68816;45.558;10.070;2023-09-18T08:09:13;37.08;;;23.83;;
63738;SDS011;68816;45.558;10.070;2023-09-18T08:11:41;40.33;;;24.88;;
63738;SDS011;68816;45.558;10.070;2023-09-18T08:14:08;36.33;;;23.20;;
63738;SDS011;68816;45.558;10.070;2023-09-18T08:16:34;36.42;;;22.85;;
63738;SDS011;68816;45.558;10.070;2023-09-18T08:19:03;37.78;;;23.48;;
63738;SDS011;68816;45.558;10.070;2023-09-18T08:21:29;37.60;;;22.92;;
63738;SDS011;68816;45.558;10.070;2023-09-18T08:23:55;36.72;;;23.65;;
63738;SDS011;68816;45.558;10.070;2023-09-18T08:26:21;38.30;;;22.35;;
63738;SDS011;68816;45.558;10.070;2023-09-18T08:28:47;32.50;;;22.27;;
63738;SDS011;68816;45.558;10.070;2023-09-18T08:31:14;33.17;;;21.58;;
63738;SDS011;68816;45.558;10.070;2023-09-18T08:33:41;35.20;;;21.90;;
63738;SDS011;68816;45.558;10.070;2023-09-18T08:36:08;30.63;;;22.05;;
63738;SDS011;68816;45.558;10.070;2023-09-18T08:38:34;29.60;;;20.08;;
63738;SDS011;68816;45.558;10.070;2023-09-18T08:41:00;32.88;;;21.98;;
63738;SDS011;68816;45.558;10.070;2023-09-18T08:43:26;29.23;;;20.25;;
63738;SDS011;68816;45.558;10.070;2023-09-18T08:45:54;32.10;;;19.67;;
63738;SDS011;68816;45.558;10.070;2023-09-18T08:48:26;29.38;;;20.20;;
63738;SDS011;68816;45.558;10.070;2023-09-18T08:51:00;28.77;;;18.73;;
63738;SDS011;68816;45.558;10.070;2023-09-18T08:53:32;28.40;;;19.15;;
63738;SDS011;68816;45.558;10.070;2023-09-18T08:56:00;32.25;;;18.17;;
63738;SDS011;68816;45.558;10.070;2023-09-18T08:58:38;22.73;;;17.60;;
63738;SDS011;68816;45.558;10.070;2023-09-18T09:01:08;24.10;;;17.55;;
63738;SDS011;68816;45.558;10.070;2023-09-18T09:03:40;33.88;;;16.15;;
63738;SDS011;68816;45.558;10.070;2023-09-18T09:06:08;19.80;;;14.55;;
63738;SDS011;68816;45.558;10.070;2023-09-18T09:08:35;22.30;;;15.15;;
63738;SDS011;68816;45.558;10.070;2023-09-18T09:11:02;22.90;;;13.90;;
63738;SDS011;68816;45.558;10.070;2023-09-18T09:13:28;21.98;;;14.60;;
63738;SDS011;68816;45.558;10.070;2023-09-18T09:15:54;22.60;;;13.65;;
63738;SDS011;68816;45.558;10.070;2023-09-18T09:18:26;20.77;;;14.50;;
63738;SDS011;68816;45.558;10.070;2023-09-18T09:21:02;46.83;;;15.80;;
63738;SDS011;68816;45.558;10.070;2023-09-18T09:23:44;20.45;;;14.27;;
63738;SDS011;68816;45.558;10.070;2023-09-18T09:26:17;19.00;;;13.23;;
63738;SDS011;68816;45.558;10.070;2023-09-18T09:28:44;20.35;;;13.30;;
63738;SDS011;68816;45.558;10.070;2023-09-18T09:31:11;22.48;;;13.15;;
63738;SDS011;68816;45.558;10.070;2023-09-18T09:33:37;19.58;;;13.57;;
63738;SDS011;68816;45.558;10.070;2023-09-18T09:36:06;25.52;;;13.02;;
63738;SDS011;68816;45.558;10.070;2023-09-18T09:38:32;23.10;;;13.75;;
63738;SDS011;68816;45.558;10.070;2023-09-18T09:41:02;18.80;;;13.60;;
63738;SDS011;68816;45.558;10.070;2023-09-18T09:43:35;20.23;;;12.85;;
63738;SDS011;68816;45.558;10.070;2023-09-18T09:46:01;21.00;;;13.65;;
63738;SDS011;68816;45.558;10.070;2023-09-18T09:48:27;18.63;;;13.50;;
63738;SDS011;68816;45.558;10.070;2023-09-18T09:50:58;22.45;;;13.20;;
63738;SDS011;68816;45.558;10.070;2023-09-18T09:53:43;17.90;;;13.07;;
63738;SDS011;68816;45.558;10.070;2023-09-18T09:56:13;16.90;;;12.38;;
63738;SDS011;68816;45.558;10.070;2023-09-18T09:58:39;19.17;;;12.95;;
63738;SDS011;68816;45.558;10.070;2023-09-18T10:01:15;22.55;;;12.77;;
63738;SDS011;68816;45.558;10.070;2023-09-18T10:03:43;21.23;;;13.20;;
63738;SDS011;68816;45.558;10.070;2023-09-18T10:06:09;20.08;;;13.95;;
63738;SDS011;68816;45.558;10.070;2023-09-18T10:08:38;19.42;;;13.00;;
63738;SDS011;68816;45.558;10.070;2023-09-18T10:11:08;15.07;;;13.18;;
63738;SDS011;68816;45.558;10.070;2023-09-18T10:13:42;17.83;;;13.38;;
63738;SDS011;68816;45.558;10.070;2023-09-18T10:16:30;21.70;;;14.05;;
63738;SDS011;68816;45.558;10.070;2023-09-18T10:19:10;21.65;;;14.00;;
63738;SDS011;68816;45.558;10.070;2023-09-18T10:24:45;19.45;;;13.63;;
63738;SDS011;68816;45.558;10.070;2023-09-18T10:27:12;21.98;;;14.13;;
63738;SDS011;68816;45.558;10.070;2023-09-18T10:29:42;17.83;;;13.38;;
63738;SDS011;68816;45.558;10.070;2023-09-18T10:32:09;21.75;;;13.43;;
63738;SDS011;68816;45.558;10.070;2023-09-18T10:34:36;18.30;;;13.15;;
63738;SDS011;68816;45.558;10.070;2023-09-18T10:37:26;22.50;;;12.18;;
63738;SDS011;68816;45.558;10.070;2023-09-18T10:39:53;21.60;;;12.63;;
63738;SDS011;68816;45.558;10.070;2023-09-18T10:42:21;17.98;;;12.85;;
63738;SDS011;68816;45.558;10.070;2023-09-18T10:44:48;15.68;;;11.68;;
63738;SDS011;68816;45.558;10.070;2023-09-18T10:47:15;15.57;;;11.32;;
63738;SDS011;68816;45.558;10.070;2023-09-18T10:49:43;16.92;;;10.93;;
63738;SDS011;68816;45.558;10.070;2023-09-18T10:52:12;15.55;;;11.07;;
63738;SDS011;68816;45.558;10.070;2023-09-18T10:54:40;17.45;;;10.98;;
63738;SDS011;68816;45.558;10.070;2023-09-18T10:57:05;16.05;;;9.98;;
63738;SDS011;68816;45.558;10.070;2023-09-18T10:59:31;17.45;;;11.30;;
63738;SDS011;68816;45.558;10.070;2023-09-18T11:02:02;18.02;;;10.60;;
63738;SDS011;68816;45.558;10.070;2023-09-18T11:04:31;19.83;;;11.70;;
63738;SDS011;68816;45.558;10.070;2023-09-18T11:09:25;19.67;;;12.07;;
63738;SDS011;68816;45.558;10.070;2023-09-18T11:14:44;19.38;;;11.70;;
63738;SDS011;68816;45.558;10.070;2023-09-18T11:20:24;18.10;;;11.82;;
63738;SDS011;68816;45.558;10.070;2023-09-18T11:22:58;18.40;;;10.70;;
63738;SDS011;68816;45.558;10.070;2023-09-18T11:25:40;17.55;;;10.68;;
63738;SDS011;68816;45.558;10.070;2023-09-18T11:28:26;16.48;;;11.52;;
63738;SDS011;68816;45.558;10.070;2023-09-18T11:30:56;17.38;;;11.73;;
63738;SDS011;68816;45.558;10.070;2023-09-18T11:33:37;18.98;;;11.20;;
63738;SDS011;68816;45.558;10.070;2023-09-18T11:36:07;19.80;;;11.85;;
63738;SDS011;68816;45.558;10.070;2023-09-18T11:38:58;19.13;;;11.73;;
63738;SDS011;68816;45.558;10.070;2023-09-18T11:41:34;15.85;;;11.13;;
63738;SDS011;68816;45.558;10.070;2023-09-18T11:46:45;18.42;;;12.63;;
63738;SDS011;68816;45.558;10.070;2023-09-18T11:49:22;16.35;;;12.00;;
63738;SDS011;68816;45.558;10.070;2023-09-18T11:51:51;18.27;;;10.52;;
63738;SDS011;68816;45.558;10.070;2023-09-18T11:54:19;21.45;;;11.35;;
63738;SDS011;68816;45.558;10.070;2023-09-18T11:56:46;20.08;;;11.60;;
63738;SDS011;68816;45.558;10.070;2023-09-18T11:59:12;19.88;;;12.40;;
63738;SDS011;68816;45.558;10.070;2023-09-18T12:01:38;21.25;;;11.30;;
63738;SDS011;68816;45.558;10.070;2023-09-18T12:04:11;22.13;;;10.90;;
63738;SDS011;68816;45.558;10.070;2023-09-18T12:06:39;21.63;;;10.75;;
63738;SDS011;68816;45.558;10.070;2023-09-18T12:09:05;18.65;;;10.85;;
63738;SDS011;68816;45.558;10.070;2023-09-18T12:11:32;21.88;;;10.98;;
63738;SDS011;68816;45.558;10.070;2023-09-18T12:14:04;19.95;;;10.75;;
63738;SDS011;68816;45.558;10.070;2023-09-18T12:16:31;17.65;;;10.93;;
63738;SDS011;68816;45.558;10.070;2023-09-18T12:19:04;15.85;;;9.85;;
63738;SDS011;68816;45.558;10.070;2023-09-18T12:21:31;16.75;;;10.70;;
63738;SDS011;68816;45.558;10.070;2023-09-18T12:23:57;18.10;;;10.32;;
63738;SDS011;68816;45.558;10.070;2023-09-18T12:26:22;22.42;;;11.13;;
63738;SDS011;68816;45.558;10.070;2023-09-18T12:28:51;16.90;;;9.93;;
63738;SDS011;68816;45.558;10.070;2023-09-18T12:31:16;17.02;;;11.00;;
63738;SDS011;68816;45.558;10.070;2023-09-18T12:33:43;22.45;;;9.93;;
63738;SDS011;68816;45.558;10.070;2023-09-18T12:36:09;22.23;;;11.00;;
63738;SDS011;68816;45.558;10.070;2023-09-18T12:38:36;25.42;;;10.85;;
63738;SDS011;68816;45.558;10.070;2023-09-18T12:41:03;15.90;;;10.43;;
63738;SDS011;68816;45.558;10.070;2023-09-18T12:43:37;18.27;;;10.70;;
63738;SDS011;68816;45.558;10.070;2023-09-18T12:46:07;24.92;;;11.57;;
63738;SDS011;68816;45.558;10.070;2023-09-18T12:48:37;18.20;;;12.02;;
63738;SDS011;68816;45.558;10.070;2023-09-18T12:51:07;22.40;;;11.77;;
63738;SDS011;68816;45.558;10.070;2023-09-18T12:53:34;27.92;;;11.88;;
63738;SDS011;68816;45.558;10.070;2023-09-18T12:56:07;17.50;;;11.07;;
63738;SDS011;68816;45.558;10.070;2023-09-18T12:58:34;21.08;;;11.43;;
63738;SDS011;68816;45.558;10.070;2023-09-18T13:01:03;20.98;;;11.88;;
63738;SDS011;68816;45.558;10.070;2023-09-18T13:03:40;20.75;;;11.77;;
63738;SDS011;68816;45.558;10.070;2023-09-18T13:06:10;19.27;;;12.35;;
63738;SDS011;68816;45.558;10.070;2023-09-18T13:08:37;20.58;;;13.07;;
63738;SDS011;68816;45.558;10.070;2023-09-18T13:11:03;25.05;;;12.82;;
63738;SDS011;68816;45.558;10.070;2023-09-18T13:13:29;23.20;;;13.90;;
63738;SDS011;68816;45.558;10.070;2023-09-18T13:15:58;24.95;;;14.45;;
63738;SDS011;68816;45.558;10.070;2023-09-18T13:18:25;24.20;;;13.88;;
63738;SDS011;68816;45.558;10.070;2023-09-18T13:20:52;22.15;;;13.10;;
63738;SDS011;68816;45.558;10.070;2023-09-18T13:23:19;19.15;;;13.95;;
63738;SDS011;68816;45.558;10.070;2023-09-18T13:25:46;22.88;;;13.95;;
63738;SDS011;68816;45.558;10.070;2023-09-18T13:28:13;23.95;;;13.80;;
63738;SDS011;68816;45.558;10.070;2023-09-18T13:30:40;26.92;;;14.23;;
63738;SDS011;68816;45.558;10.070;2023-09-18T13:33:08;28.67;;;15.43;;
63738;SDS011;68816;45.558;10.070;2023-09-18T13:35:36;25.13;;;14.85;;
63738;SDS011;68816;45.558;10.070;2023-09-18T13:38:05;25.40;;;14.90;;
63738;SDS011;68816;45.558;10.070;2023-09-18T13:40:31;28.20;;;15.48;;
63738;SDS011;68816;45.558;10.070;2023-09-18T13:43:01;25.05;;;14.90;;
63738;SDS011;68816;45.558;10.070;2023-09-18T13:45:29;26.98;;;15.55;;
63738;SDS011;68816;45.558;10.070;2023-09-18T13:47:55;27.23;;;15.38;;
63738;SDS011;68816;45.558;10.070;2023-09-18T13:50:21;25.25;;;16.10;;
63738;SDS011;68816;45.558;10.070;2023-09-18T13:52:47;26.25;;;15.93;;
63738;SDS011;68816;45.558;10.070;2023-09-18T13:55:12;25.73;;;16.77;;
63738;SDS011;68816;45.558;10.070;2023-09-18T13:57:38;26.83;;;16.73;;
63738;SDS011;68816;45.558;10.070;2023-09-18T14:00:07;28.35;;;18.15;;
63738;SDS011;68816;45.558;10.070;2023-09-18T14:02:35;27.45;;;18.05;;
63738;SDS011;68816;45.558;10.070;2023-09-18T14:05:02;29.60;;;18.42;;
63738;SDS011;68816;45.558;10.070;2023-09-18T14:07:28;27.15;;;19.27;;
63738;SDS011;68816;45.558;10.070;2023-09-18T14:09:54;30.15;;;19.42;;
63738;SDS011;68816;45.558;10.070;2023-09-18T14:12:20;28.67;;;18.77;;
63738;SDS011;68816;45.558;10.070;2023-09-18T14:14:46;29.00;;;18.83;;
63738;SDS011;68816;45.558;10.070;2023-09-18T14:17:11;27.95;;;17.65;;
63738;SDS011;68816;45.558;10.070;2023-09-18T14:19:37;28.00;;;18.08;;
63738;SDS011;68816;45.558;10.070;2023-09-18T14:22:04;23.77;;;17.23;;
63738;SDS011;68816;45.558;10.070;2023-09-18T14:24:31;26.70;;;17.55;;
63738;SDS011;68816;45.558;10.070;2023-09-18T14:27:08;34.22;;;18.63;;
63738;SDS011;68816;45.558;10.070;2023-09-18T14:29:34;24.77;;;16.70;;
63738;SDS011;68816;45.558;10.070;2023-09-18T14:31:59;25.23;;;17.00;;